createdAt,value
2022-08-17T04:01:10.496Z,11.15
2022-08-17T04:04:13.832Z,8.60
2022-08-17T04:07:16.329Z,10.82
2022-08-17T04:10:18.680Z,10.07
2022-08-17T04:13:25.461Z,9.68
2022-08-17T04:16:28.982Z,11.35
2022-08-17T04:19:31.153Z,12.25
2022-08-17T04:22:34.361Z,12.37
2022-08-17T04:25:39.671Z,9.02
2022-08-17T04:28:43.418Z,11.02
2022-08-17T04:31:45.542Z,9.43
2022-08-17T04:34:47.846Z,9.68
2022-08-17T04:37:50.929Z,12.18
2022-08-17T04:41:12.678Z,11.32
2022-08-17T04:44:14.803Z,10.15
2022-08-17T04:47:37.627Z,10.18
2022-08-17T04:50:43.697Z,10.93
2022-08-17T04:53:54.461Z,14.00
2022-08-17T04:56:57.138Z,11.52
2022-08-17T04:59:59.467Z,10.90
2022-08-17T05:03:01.893Z,10.38
2022-08-17T05:06:04.514Z,9.75
2022-08-17T05:09:06.717Z,10.18
2022-08-17T05:12:09.856Z,10.27
2022-08-17T05:15:16.010Z,11.35
2022-08-17T05:18:18.721Z,12.90
2022-08-17T05:21:23.117Z,12.70
2022-08-17T05:24:42.756Z,11.73
2022-08-17T05:27:45.937Z,14.85
2022-08-17T05:30:49.542Z,22.50
2022-08-17T05:33:52.433Z,10.60
2022-08-17T05:36:54.756Z,10.65
2022-08-17T05:39:56.898Z,13.25
2022-08-17T05:43:16.122Z,12.82
2022-08-17T05:46:30.591Z,18.92
2022-08-17T05:49:33.346Z,12.98
2022-08-17T05:53:00.618Z,14.40
2022-08-17T05:56:29.475Z,13.65
2022-08-17T05:59:58.279Z,9.05
2022-08-17T06:03:11.241Z,15.20
2022-08-17T06:06:32.009Z,10.43
2022-08-17T06:09:37.014Z,13.43
2022-08-17T06:13:00.210Z,13.18
2022-08-17T06:16:32.880Z,15.45
2022-08-17T06:19:44.043Z,12.55
2022-08-17T06:22:50.772Z,12.77
2022-08-17T06:25:58.645Z,10.60
2022-08-17T06:29:24.514Z,19.37
2022-08-17T06:32:26.865Z,20.00
2022-08-17T06:35:37.809Z,20.02
2022-08-17T06:38:49.960Z,15.15
2022-08-17T06:43:02.570Z,13.23
2022-08-17T06:45:49.273Z,21.58
2022-08-17T06:48:57.515Z,15.10
2022-08-17T06:52:42.303Z,12.52
2022-08-17T06:56:01.271Z,9.93
2022-08-17T06:59:07.459Z,14.68
2022-08-17T07:02:17.957Z,11.20
2022-08-17T07:05:26.826Z,11.27
2022-08-17T07:08:55.067Z,14.50
2022-08-17T07:12:22.078Z,9.25
2022-08-17T07:15:32.742Z,13.13
2022-08-17T07:18:35.134Z,9.40
2022-08-17T07:21:49.631Z,16.83
2022-08-17T07:25:00.755Z,12.77
2022-08-17T07:28:07.327Z,11.73
2022-08-17T07:31:13.272Z,12.63
2022-08-17T07:34:15.450Z,11.48
2022-08-17T07:37:19.395Z,12.07
2022-08-17T07:40:27.094Z,14.40
2022-08-17T07:43:37.899Z,11.63
2022-08-17T07:47:10.874Z,13.18
2022-08-17T07:50:28.834Z,10.07
2022-08-17T07:53:31.894Z,14.05
2022-08-17T07:56:54.335Z,11.43
2022-08-17T08:00:03.108Z,9.40
2022-08-17T08:03:18.416Z,9.85
2022-08-17T08:06:24.808Z,13.13
2022-08-17T08:09:39.120Z,10.93
2022-08-17T08:12:42.971Z,11.98
2022-08-17T08:15:53.704Z,12.60
2022-08-17T08:19:00.582Z,15.30
2022-08-17T08:22:11.161Z,10.35
2022-08-17T08:25:16.635Z,10.88
2022-08-17T08:28:27.348Z,10.20
2022-08-17T08:32:07.593Z,11.75
2022-08-17T08:35:32.982Z,12.73
2022-08-17T08:38:56.581Z,13.35
2022-08-17T08:42:18.182Z,11.27
2022-08-17T08:45:32.786Z,10.07
2022-08-17T08:49:06.532Z,11.65
2022-08-17T08:52:33.998Z,13.02
2022-08-17T08:56:11.546Z,14.02
2022-08-17T08:59:32.882Z,12.82
2022-08-17T09:02:51.487Z,11.07
2022-08-17T09:06:37.439Z,13.35
2022-08-17T09:09:48.285Z,15.55
2022-08-17T09:13:22.059Z,18.20
2022-08-17T09:16:33.157Z,11.73
2022-08-17T09:19:42.561Z,12.25
2022-08-17T09:22:52.658Z,11.10
2022-08-17T09:26:00.622Z,12.45
2022-08-17T09:29:09.927Z,9.88
2022-08-17T09:32:19.406Z,9.52
2022-08-17T09:35:25.133Z,9.20
2022-08-17T09:39:06.079Z,15.98
2022-08-17T09:42:26.119Z,15.38
2022-08-17T09:45:37.661Z,12.07
2022-08-17T09:49:03.288Z,9.60
2022-08-17T09:52:20.339Z,11.00
2022-08-17T09:55:32.427Z,20.98
2022-08-17T09:59:08.545Z,8.00
2022-08-17T10:02:32.631Z,7.82
2022-08-17T10:05:41.302Z,12.55
2022-08-17T10:09:04.491Z,10.73
2022-08-17T10:12:46.997Z,10.60
2022-08-17T10:15:54.673Z,13.55
2022-08-17T10:19:06.313Z,7.78
2022-08-17T10:22:44.470Z,8.40
2022-08-17T10:26:13.123Z,8.00
2022-08-17T10:29:28.962Z,7.20
2022-08-17T10:32:46.834Z,8.93
2022-08-17T10:36:01.187Z,7.62
2022-08-17T10:39:27.728Z,6.87
2022-08-17T10:42:43.658Z,8.77
2022-08-17T10:45:45.895Z,6.25
2022-08-17T10:49:14.950Z,6.00
2022-08-17T10:52:20.270Z,4.80
2022-08-17T10:55:27.729Z,6.70
2022-08-17T10:58:38.581Z,8.55
2022-08-17T11:01:43.325Z,6.80
2022-08-17T11:04:51.451Z,6.10
2022-08-17T11:08:18.138Z,7.68
2022-08-17T11:11:43.359Z,5.87
2022-08-17T11:14:54.189Z,6.72
2022-08-17T11:18:15.461Z,5.20
2022-08-17T11:21:47.515Z,5.90
2022-08-17T11:24:52.914Z,5.93
2022-08-17T11:31:38.645Z,5.43
2022-08-17T11:34:44.487Z,6.03
2022-08-17T11:37:55.266Z,7.70
2022-08-17T11:41:17.591Z,10.43
2022-08-17T11:44:45.312Z,6.87
2022-08-17T11:48:28.768Z,5.90
2022-08-17T11:52:00.312Z,7.20
2022-08-17T11:55:33.528Z,7.97
2022-08-17T11:58:29.332Z,7.20
2022-08-17T12:01:31.457Z,8.45
2022-08-17T12:04:35.614Z,7.87
2022-08-17T12:08:06.794Z,10.75
2022-08-17T12:11:56.359Z,7.70
2022-08-17T12:15:12.658Z,5.65
2022-08-17T12:18:32.328Z,7.28
2022-08-17T12:21:45.112Z,7.10
2022-08-17T12:25:02.773Z,5.40
2022-08-17T12:28:19.944Z,5.07
2022-08-17T12:31:29.490Z,5.40
2022-08-17T12:34:39.779Z,5.15
2022-08-17T12:37:47.707Z,7.20
2022-08-17T12:40:58.115Z,6.78
2022-08-17T12:44:02.668Z,7.43
2022-08-17T12:47:19.442Z,7.10
2022-08-17T12:50:28.881Z,6.65
2022-08-17T12:53:35.724Z,5.15
2022-08-17T12:56:38.279Z,5.18
2022-08-17T12:59:50.353Z,6.05
2022-08-17T13:03:02.441Z,7.15
2022-08-17T13:06:07.946Z,5.03
2022-08-17T13:09:40.354Z,6.12
2022-08-17T13:12:43.002Z,9.57
2022-08-17T13:15:54.841Z,6.60
2022-08-17T13:19:09.571Z,6.95
2022-08-17T13:22:12.801Z,6.60
2022-08-17T13:25:16.671Z,5.60
2022-08-17T13:28:35.793Z,7.60
2022-08-17T13:31:52.167Z,5.80
2022-08-17T13:35:15.463Z,8.27
2022-08-17T13:38:45.479Z,5.15
2022-08-17T13:41:49.743Z,5.55
2022-08-17T13:44:51.797Z,10.57
2022-08-17T13:48:13.537Z,8.52
2022-08-17T13:51:25.897Z,11.38
2022-08-17T13:54:33.187Z,5.10
2022-08-17T13:57:36.275Z,6.57
2022-08-17T14:00:39.419Z,4.32
2022-08-17T14:03:41.747Z,5.50
2022-08-17T14:07:23.158Z,7.12
2022-08-17T14:10:26.066Z,7.40
2022-08-17T14:13:28.595Z,6.28
2022-08-17T14:16:30.930Z,5.40
2022-08-17T14:19:33.059Z,4.40
2022-08-17T14:22:38.184Z,4.37
2022-08-17T14:25:40.510Z,7.43
2022-08-17T14:28:54.694Z,7.43
2022-08-17T14:32:04.237Z,7.20
2022-08-17T14:35:09.024Z,4.97
2022-08-17T14:38:11.082Z,4.47
2022-08-17T14:41:21.470Z,5.47
2022-08-17T14:44:24.513Z,6.97
2022-08-17T14:47:26.931Z,6.50
2022-08-17T14:50:29.004Z,6.25
